Time;durP1;ratioP1;P1;durP2;ratioP2;P2;SDS_P1;SDS_P2;PMS_P1;PMS_P2;Temp;Humidity;BMP_temperature;BMP_pressure;BME280_temperature;BME280_humidity;BME280_pressure;Samples;Min_cycle;Max_cycle;Signal;HPM_P1;HPM_P2
2023/03/16 00:00:20;;;;;;;2.43;1.80;;;5.20;99.90;;;;;;4975091;28;20471;-75
2023/03/16 00:02:48;;;;;;;4.20;2.00;;;5.20;99.90;;;;;;4970508;28;20172;-75
2023/03/16 00:05:14;;;;;;;2.13;1.80;;;5.20;99.90;;;;;;4969053;28;20202;-74
2023/03/16 00:07:42;;;;;;;3.40;2.27;;;5.20;99.90;;;;;;4973388;28;20176;-75
2023/03/16 00:10:13;;;;;;;3.63;1.90;;;5.20;99.90;;;;;;4973996;28;20187;-76
2023/03/16 00:12:42;;;;;;;4.27;2.07;;;5.20;99.90;;;;;;4974799;28;20197;-75
2023/03/16 00:15:10;;;;;;;2.63;1.80;;;5.20;99.90;;;;;;4974664;28;20227;-76
2023/03/16 00:17:39;;;;;;;2.63;2.00;;;5.20;99.90;;;;;;4972174;28;20231;-77
2023/03/16 00:20:07;;;;;;;2.67;2.10;;;5.20;99.90;;;;;;4989756;28;20204;-75
2023/03/16 00:22:35;;;;;;;4.20;2.30;;;5.20;99.90;;;;;;4976607;28;20184;-75
2023/03/16 00:25:01;;;;;;;3.40;1.97;;;5.20;99.90;;;;;;4974077;28;20341;-73
2023/03/16 00:27:26;;;;;;;2.83;2.00;;;5.20;99.90;;;;;;4991031;28;20255;-74
2023/03/16 00:29:56;;;;;;;2.13;1.90;;;5.20;99.90;;;;;;4975004;28;20186;-75
2023/03/16 00:32:27;;;;;;;2.47;1.90;;;5.20;99.90;;;;;;4974651;28;20265;-76
2023/03/16 00:34:53;;;;;;;3.90;2.10;;;5.20;99.90;;;;;;4990544;28;20176;-75
2023/03/16 00:37:23;;;;;;;3.53;2.13;;;5.10;99.90;;;;;;4986735;28;20211;-75
2023/03/16 00:39:50;;;;;;;3.73;1.83;;;5.10;99.90;;;;;;4975542;28;20220;-74
2023/03/16 00:42:17;;;;;;;3.40;2.00;;;5.10;99.90;;;;;;4974491;28;20380;-76
2023/03/16 00:44:43;;;;;;;5.07;2.20;;;5.10;99.90;;;;;;4988296;28;20210;-75
2023/03/16 00:47:13;;;;;;;4.07;2.57;;;5.10;99.90;;;;;;4989823;28;20200;-73
2023/03/16 00:49:42;;;;;;;3.50;2.40;;;5.10;99.90;;;;;;4965180;28;20317;-76
2023/03/16 00:52:13;;;;;;;3.03;2.30;;;5.10;99.90;;;;;;4981779;28;20183;-77
2023/03/16 00:54:43;;;;;;;4.03;2.50;;;5.10;99.90;;;;;;4972041;28;20257;-77
2023/03/16 00:57:12;;;;;;;3.60;2.60;;;5.10;99.90;;;;;;4971995;28;20188;-76
2023/03/16 00:59:41;;;;;;;4.63;2.57;;;5.10;99.90;;;;;;4970597;28;20188;-75
2023/03/16 01:02:11;;;;;;;5.23;2.67;;;5.10;99.90;;;;;;4991444;28;20172;-76
2023/03/16 01:04:42;;;;;;;3.60;2.50;;;5.10;99.90;;;;;;4987266;28;20275;-67
2023/03/16 01:07:11;;;;;;;4.10;2.50;;;5.10;99.90;;;;;;4961781;28;20231;-68
2023/03/16 01:09:38;;;;;;;3.87;2.60;;;5.10;99.90;;;;;;4971027;28;20173;-68
2023/03/16 01:12:08;;;;;;;4.03;2.37;;;5.10;99.90;;;;;;4989750;28;20199;-68
2023/03/16 01:14:37;;;;;;;3.47;2.23;;;5.10;99.90;;;;;;4995047;28;20179;-68
2023/03/16 01:17:04;;;;;;;3.30;2.30;;;5.10;99.90;;;;;;4972146;28;20187;-69
2023/03/16 01:19:33;;;;;;;2.83;2.20;;;5.10;99.90;;;;;;4976511;28;20191;-66
2023/03/16 01:21:59;;;;;;;4.37;2.40;;;5.10;99.90;;;;;;4972935;28;20200;-67
2023/03/16 01:24:24;;;;;;;3.10;2.20;;;5.20;99.90;;;;;;4975903;28;20208;-66
2023/03/16 01:26:51;;;;;;;2.33;2.00;;;5.10;99.90;;;;;;4991502;28;20253;-68
2023/03/16 01:29:16;;;;;;;4.43;2.60;;;5.20;99.90;;;;;;4977257;28;20180;-61
2023/03/16 01:31:44;;;;;;;3.20;2.10;;;5.20;99.90;;;;;;4977940;28;20180;-65
2023/03/16 01:34:15;;;;;;;2.60;2.07;;;5.20;99.90;;;;;;4977298;28;20208;-67
2023/03/16 01:36:46;;;;;;;2.73;1.93;;;5.20;99.90;;;;;;4991618;28;20192;-67
2023/03/16 01:39:13;;;;;;;3.30;2.00;;;5.20;99.90;;;;;;4989022;28;20189;-68
2023/03/16 01:41:40;;;;;;;4.10;2.33;;;5.20;99.90;;;;;;4991938;28;20203;-68
2023/03/16 01:44:11;;;;;;;2.90;2.13;;;5.20;99.90;;;;;;4976218;28;20188;-68
2023/03/16 01:46:40;;;;;;;2.20;1.80;;;5.20;99.90;;;;;;4977569;28;20180;-66
2023/03/16 01:49:25;;;;;;;3.03;2.13;;;5.20;99.90;;;;;;4971528;28;20172;-66
2023/03/16 01:51:51;;;;;;;4.17;2.30;;;5.20;99.90;;;;;;4977771;28;20254;-68
2023/03/16 01:54:16;;;;;;;2.60;2.27;;;5.20;99.90;;;;;;4988947;28;20268;-67
2023/03/16 01:57:11;;;;;;;5.20;2.13;;;5.10;99.90;;;;;;4974000;28;20215;-67
2023/03/16 02:00:09;;;;;;;2.50;1.90;;;5.10;99.90;;;;;;4991694;28;20184;-64
2023/03/16 02:02:38;;;;;;;2.37;1.70;;;5.10;99.90;;;;;;4972176;28;20218;-64
2023/03/16 02:05:12;;;;;;;2.60;1.90;;;5.10;99.90;;;;;;4972997;28;20196;-68
2023/03/16 02:07:47;;;;;;;2.27;1.80;;;5.10;99.90;;;;;;4974884;28;20195;-68
2023/03/16 02:10:19;;;;;;;2.77;1.80;;;5.10;99.90;;;;;;4973731;28;20198;-62
2023/03/16 02:12:47;;;;;;;2.77;2.03;;;5.10;99.90;;;;;;4969397;28;20180;-62
2023/03/16 02:15:14;;;;;;;4.10;2.30;;;5.10;99.90;;;;;;4980528;28;20212;-67
2023/03/16 02:17:44;;;;;;;2.50;1.70;;;5.20;99.90;;;;;;4972789;28;20176;-68
2023/03/16 02:20:27;;;;;;;1.93;1.67;;;5.10;99.90;;;;;;4975268;28;20262;-68
2023/03/16 02:22:53;;;;;;;2.70;1.90;;;5.10;99.90;;;;;;4977213;28;20179;-67
2023/03/16 02:25:28;;;;;;;2.40;1.47;;;5.10;99.90;;;;;;4992278;28;20282;-68
2023/03/16 02:28:15;;;;;;;2.43;1.90;;;5.10;99.90;;;;;;4976410;28;20200;-64
2023/03/16 02:30:48;;;;;;;2.23;1.67;;;5.10;99.90;;;;;;4978455;28;20177;-68
2023/03/16 02:33:18;;;;;;;2.07;1.67;;;5.00;99.90;;;;;;4975294;28;20188;-70
2023/03/16 02:35:46;;;;;;;2.63;1.57;;;5.00;99.90;;;;;;4976605;28;20184;-68
2023/03/16 02:38:11;;;;;;;2.27;1.53;;;5.00;99.90;;;;;;4976983;28;20306;-68
2023/03/16 02:40:42;;;;;;;2.20;1.80;;;5.00;99.90;;;;;;4976347;28;20282;-67
2023/03/16 02:43:20;;;;;;;3.13;1.60;;;5.00;99.90;;;;;;4970001;28;20188;-67
2023/03/16 02:45:50;;;;;;;1.87;1.63;;;5.10;99.90;;;;;;4971818;28;20207;-63
2023/03/16 02:48:48;;;;;;;2.10;1.80;;;5.00;99.90;;;;;;4986180;28;20184;-68
2023/03/16 02:51:14;;;;;;;1.80;1.50;;;5.00;99.90;;;;;;4974106;28;20188;-68
2023/03/16 02:53:39;;;;;;;3.07;1.80;;;5.00;99.90;;;;;;4985519;28;20208;-65
2023/03/16 02:56:05;;;;;;;2.30;1.50;;;5.00;99.90;;;;;;4976538;28;20207;-66
2023/03/16 02:58:31;;;;;;;2.73;1.97;;;5.00;99.90;;;;;;4980767;28;20176;-66
2023/03/16 03:00:59;;;;;;;4.00;2.20;;;5.00;99.90;;;;;;4976457;28;20207;-67
2023/03/16 03:03:24;;;;;;;2.53;1.87;;;5.00;99.90;;;;;;4973243;28;20433;-66
2023/03/16 03:05:52;;;;;;;4.27;2.33;;;5.00;99.90;;;;;;4980942;28;20183;-66
2023/03/16 03:08:21;;;;;;;2.90;1.80;;;5.00;99.90;;;;;;4988722;28;20487;-68
2023/03/16 03:10:49;;;;;;;3.07;2.20;;;5.00;99.90;;;;;;4976481;28;20191;-67
2023/03/16 03:13:17;;;;;;;2.73;1.80;;;5.00;99.90;;;;;;4976733;28;20203;-68
2023/03/16 03:15:44;;;;;;;3.90;2.00;;;4.90;99.90;;;;;;4976847;28;20180;-66
2023/03/16 03:18:10;;;;;;;3.60;2.40;;;4.90;99.90;;;;;;4976698;28;20184;-66
2023/03/16 03:20:36;;;;;;;4.13;2.37;;;4.90;99.90;;;;;;4970056;28;20262;-66
2023/03/16 03:23:04;;;;;;;2.67;2.10;;;5.00;99.90;;;;;;4996800;28;20259;-66
2023/03/16 03:25:33;;;;;;;3.60;2.27;;;4.90;99.90;;;;;;4984308;28;20222;-66
2023/03/16 03:28:00;;;;;;;2.83;2.20;;;4.90;99.90;;;;;;4972818;28;20180;-66
2023/03/16 03:30:27;;;;;;;2.27;2.00;;;4.90;99.90;;;;;;4974671;28;20192;-66
2023/03/16 03:33:00;;;;;;;2.80;2.00;;;4.90;99.90;;;;;;4973799;28;20259;-68
2023/03/16 03:35:28;;;;;;;2.63;2.10;;;4.90;99.90;;;;;;4989446;28;20184;-66
2023/03/16 03:37:54;;;;;;;3.13;2.33;;;4.90;99.90;;;;;;4974818;28;20204;-68
2023/03/16 03:40:20;;;;;;;5.13;2.70;;;4.90;99.90;;;;;;4991929;28;20200;-66
2023/03/16 03:42:46;;;;;;;3.47;2.23;;;4.80;99.90;;;;;;4985105;28;20185;-67
2023/03/16 03:45:13;;;;;;;3.00;2.23;;;4.90;99.90;;;;;;4960079;28;20218;-67
2023/03/16 03:47:40;;;;;;;4.47;2.07;;;4.80;99.90;;;;;;4966422;28;20180;-67
2023/03/16 03:50:09;;;;;;;3.20;2.07;;;4.80;99.90;;;;;;4976178;28;20184;-68
2023/03/16 03:52:38;;;;;;;5.83;2.47;;;4.80;99.90;;;;;;4975718;28;20214;-66
2023/03/16 03:55:06;;;;;;;2.37;2.03;;;4.80;99.90;;;;;;4961356;28;20272;-68
2023/03/16 03:57:32;;;;;;;3.37;2.20;;;4.80;99.90;;;;;;4979663;28;20184;-65
2023/03/16 04:00:00;;;;;;;2.77;2.20;;;4.80;99.90;;;;;;4975526;28;20192;-68
2023/03/16 04:02:27;;;;;;;3.60;2.17;;;4.80;99.90;;;;;;4987693;28;20195;-67
2023/03/16 04:04:53;;;;;;;3.17;2.27;;;4.80;99.90;;;;;;4974480;28;20200;-68
2023/03/16 04:07:19;;;;;;;4.20;2.30;;;4.80;99.90;;;;;;4975706;28;20188;-68
2023/03/16 04:09:44;;;;;;;3.40;2.30;;;4.80;99.90;;;;;;4964964;28;20180;-69
2023/03/16 04:12:12;;;;;;;2.90;2.37;;;4.80;99.90;;;;;;4981295;28;20266;-68
2023/03/16 04:14:40;;;;;;;3.07;2.00;;;4.80;99.90;;;;;;4980822;28;20188;-67
2023/03/16 04:17:08;;;;;;;3.30;2.27;;;4.90;99.90;;;;;;4974972;28;20192;-68
2023/03/16 04:19:34;;;;;;;3.27;2.20;;;4.80;99.90;;;;;;4979283;28;20222;-68
2023/03/16 04:21:59;;;;;;;2.87;2.27;;;4.90;99.90;;;;;;4999636;28;20179;-68
2023/03/16 04:24:27;;;;;;;3.23;2.40;;;5.00;99.90;;;;;;4970766;28;20262;-67
2023/03/16 04:26:55;;;;;;;2.90;2.33;;;5.00;99.90;;;;;;4990551;28;20203;-66
2023/03/16 04:29:21;;;;;;;3.57;2.43;;;4.90;99.90;;;;;;4973416;28;20275;-68
2023/03/16 04:31:46;;;;;;;3.67;2.20;;;4.90;99.90;;;;;;4986747;28;20270;-66
2023/03/16 04:34:12;;;;;;;3.70;2.60;;;4.90;99.90;;;;;;4974645;28;20325;-67
2023/03/16 04:36:43;;;;;;;3.17;2.67;;;5.00;99.90;;;;;;4974763;28;20192;-65
2023/03/16 04:39:09;;;;;;;4.00;2.60;;;5.00;99.90;;;;;;4974036;28;20212;-68
2023/03/16 04:41:35;;;;;;;3.60;2.37;;;5.10;99.90;;;;;;4970979;28;20187;-66
2023/03/16 04:44:00;;;;;;;3.37;2.50;;;5.00;99.90;;;;;;4987312;28;20290;-68
2023/03/16 04:46:28;;;;;;;3.50;2.37;;;5.00;99.90;;;;;;4990990;28;20200;-68
2023/03/16 04:48:57;;;;;;;4.50;2.30;;;5.00;99.90;;;;;;4980679;28;20215;-67
2023/03/16 04:51:26;;;;;;;5.20;2.60;;;5.10;99.90;;;;;;4991293;28;20216;-68
2023/03/16 04:53:54;;;;;;;2.80;2.27;;;5.10;99.90;;;;;;4975977;28;20271;-67
2023/03/16 04:56:20;;;;;;;4.07;2.47;;;5.10;99.90;;;;;;4978666;28;20211;-67
2023/03/16 04:58:50;;;;;;;3.20;2.33;;;5.10;99.90;;;;;;4991670;28;20185;-67
2023/03/16 05:01:18;;;;;;;3.30;2.67;;;5.20;99.90;;;;;;4978746;28;20187;-63
2023/03/16 05:03:48;;;;;;;2.77;2.37;;;5.20;99.90;;;;;;4983801;28;20274;-61
2023/03/16 05:06:14;;;;;;;3.60;2.33;;;5.10;99.90;;;;;;4977853;28;20299;-66
2023/03/16 05:08:43;;;;;;;3.33;2.40;;;5.20;99.90;;;;;;4978758;28;20267;-66
2023/03/16 05:11:11;;;;;;;2.43;2.20;;;5.30;99.90;;;;;;4996460;28;20346;-68
2023/03/16 05:13:37;;;;;;;3.53;2.80;;;5.20;99.90;;;;;;4994486;28;20180;-68
2023/03/16 05:16:03;;;;;;;3.57;2.40;;;5.20;99.90;;;;;;4977708;28;20187;-67
2023/03/16 05:18:28;;;;;;;3.30;2.60;;;5.20;99.90;;;;;;4975498;28;20312;-66
2023/03/16 05:20:55;;;;;;;3.10;2.60;;;5.20;99.90;;;;;;4998752;28;20180;-67
2023/03/16 05:23:22;;;;;;;4.43;3.00;;;5.30;99.90;;;;;;4977571;28;20194;-68
2023/03/16 05:25:50;;;;;;;4.00;2.43;;;5.20;99.90;;;;;;4984304;28;20200;-67
2023/03/16 05:28:16;;;;;;;3.57;2.73;;;5.30;99.90;;;;;;4980649;28;20171;-66
2023/03/16 05:30:45;;;;;;;3.30;2.67;;;5.30;99.90;;;;;;4984573;28;20270;-67
2023/03/16 05:33:13;;;;;;;5.00;3.00;;;5.30;99.90;;;;;;4988201;28;20187;-67
2023/03/16 05:35:39;;;;;;;4.00;3.20;;;5.20;99.90;;;;;;4979864;28;20252;-68
2023/03/16 05:38:04;;;;;;;4.23;3.30;;;5.30;99.90;;;;;;4992886;28;20470;-66
2023/03/16 05:40:31;;;;;;;3.87;3.10;;;5.30;99.90;;;;;;4977996;28;20226;-66
2023/03/16 05:42:59;;;;;;;3.63;2.93;;;5.30;99.90;;;;;;4978030;28;20199;-67
2023/03/16 05:45:27;;;;;;;4.00;3.00;;;5.30;99.90;;;;;;4977182;28;20215;-67
2023/03/16 05:47:55;;;;;;;3.97;3.00;;;5.30;99.90;;;;;;4980026;28;20177;-67
2023/03/16 05:50:22;;;;;;;4.03;2.90;;;5.30;99.90;;;;;;4977832;28;20200;-67
2023/03/16 05:52:48;;;;;;;4.90;3.40;;;5.30;99.90;;;;;;4976363;28;20187;-68
2023/03/16 05:55:15;;;;;;;3.77;3.10;;;5.40;99.90;;;;;;4977224;28;20179;-68
2023/03/16 05:57:41;;;;;;;4.37;3.20;;;5.30;99.90;;;;;;4976855;28;20211;-67
2023/03/16 06:00:14;;;;;;;4.40;3.30;;;5.30;99.90;;;;;;4977031;28;20187;-66
2023/03/16 06:02:45;;;;;;;4.90;2.50;;;5.30;99.90;;;;;;4977446;28;20180;-66
2023/03/16 06:05:11;;;;;;;4.53;3.07;;;5.30;99.90;;;;;;4977590;28;20523;-67
2023/03/16 06:07:36;;;;;;;4.90;3.00;;;5.30;99.90;;;;;;4976966;28;20242;-65
2023/03/16 06:10:04;;;;;;;4.37;3.00;;;5.20;99.90;;;;;;4976872;28;20176;-67
2023/03/16 06:12:29;;;;;;;4.60;3.10;;;5.30;99.90;;;;;;4977151;28;20208;-66
2023/03/16 06:14:55;;;;;;;3.53;2.80;;;5.30;99.90;;;;;;4976296;28;20192;-67
2023/03/16 06:17:20;;;;;;;3.63;3.10;;;5.30;99.90;;;;;;4977387;28;20188;-66
2023/03/16 06:19:49;;;;;;;3.73;2.67;;;5.30;99.90;;;;;;4976802;28;20302;-64
2023/03/16 06:22:14;;;;;;;4.17;2.77;;;5.30;99.90;;;;;;4982703;28;20243;-67
2023/03/16 06:24:45;;;;;;;3.70;2.80;;;5.30;99.90;;;;;;4993598;28;20294;-66
2023/03/16 06:27:13;;;;;;;3.77;2.83;;;5.30;99.90;;;;;;4992077;28;20276;-67
2023/03/16 06:29:39;;;;;;;5.40;3.33;;;5.30;99.90;;;;;;4976549;28;20189;-67
2023/03/16 06:32:05;;;;;;;4.63;3.10;;;5.30;99.90;;;;;;4976690;28;20238;-67
2023/03/16 06:34:30;;;;;;;6.27;3.43;;;5.40;99.90;;;;;;4976387;28;20212;-64
2023/03/16 06:36:58;;;;;;;4.13;3.03;;;5.40;99.90;;;;;;4975950;28;20199;-67
2023/03/16 06:39:26;;;;;;;5.40;3.23;;;5.40;99.90;;;;;;4974624;28;20188;-67
2023/03/16 06:41:52;;;;;;;4.67;3.00;;;5.40;99.90;;;;;;4988726;28;20204;-67
2023/03/16 06:44:18;;;;;;;4.93;3.30;;;5.40;99.90;;;;;;4979012;28;20206;-68
2023/03/16 06:46:43;;;;;;;5.10;3.20;;;5.50;99.90;;;;;;4996091;28;20183;-66
2023/03/16 06:49:11;;;;;;;3.73;3.30;;;5.50;99.90;;;;;;4985580;28;20216;-67
2023/03/16 06:51:37;;;;;;;4.10;3.17;;;5.60;99.90;;;;;;4964860;28;20196;-68
2023/03/16 06:54:05;;;;;;;4.30;2.87;;;5.60;99.90;;;;;;4984916;28;20204;-68
2023/03/16 06:56:30;;;;;;;5.40;3.40;;;5.60;99.90;;;;;;4957653;29;20272;-68
2023/03/16 06:58:56;;;;;;;4.17;3.50;;;5.80;99.90;;;;;;4988450;28;20185;-67
2023/03/16 07:01:25;;;;;;;4.63;3.33;;;5.70;99.90;;;;;;4958952;28;20187;-67
2023/03/16 07:03:53;;;;;;;4.00;3.20;;;5.80;99.90;;;;;;4988098;28;20211;-66
2023/03/16 07:06:19;;;;;;;6.13;3.30;;;5.90;99.90;;;;;;4993240;28;20195;-68
2023/03/16 07:08:49;;;;;;;3.70;3.13;;;5.90;99.90;;;;;;4983960;28;20181;-67
2023/03/16 07:11:15;;;;;;;4.30;3.30;;;6.00;99.90;;;;;;4970945;28;20232;-66
2023/03/16 07:13:40;;;;;;;4.10;3.30;;;6.00;99.90;;;;;;4975778;28;20187;-67
2023/03/16 07:16:06;;;;;;;5.17;3.20;;;6.10;99.90;;;;;;4965925;28;20195;-67
2023/03/16 07:18:36;;;;;;;3.93;3.10;;;6.10;99.90;;;;;;4982210;28;20211;-67
2023/03/16 07:21:02;;;;;;;4.13;3.13;;;6.20;99.90;;;;;;4973677;28;20192;-68
2023/03/16 07:23:28;;;;;;;3.63;3.03;;;6.20;99.90;;;;;;4976139;28;20180;-68
2023/03/16 07:25:54;;;;;;;4.67;3.50;;;6.30;99.90;;;;;;4975600;28;20230;-68
2023/03/16 07:28:20;;;;;;;4.10;3.13;;;6.30;99.90;;;;;;4975724;28;20176;-68
2023/03/16 07:30:46;;;;;;;5.70;3.43;;;6.40;99.90;;;;;;4975704;28;20198;-67
2023/03/16 07:33:14;;;;;;;6.13;3.57;;;6.40;99.90;;;;;;4959130;28;20263;-68
2023/03/16 07:35:42;;;;;;;4.07;3.10;;;6.50;99.90;;;;;;4986543;28;20188;-68
2023/03/16 07:38:10;;;;;;;4.33;3.17;;;6.60;99.90;;;;;;4975469;28;20203;-65
2023/03/16 07:40:38;;;;;;;4.70;3.67;;;6.70;99.90;;;;;;4976060;28;20200;-67
2023/03/16 07:43:03;;;;;;;5.13;3.50;;;6.70;99.90;;;;;;4975479;28;20180;-67
2023/03/16 07:45:30;;;;;;;4.47;2.93;;;6.80;99.90;;;;;;4974295;28;20206;-67
2023/03/16 07:47:56;;;;;;;4.53;3.10;;;6.80;99.90;;;;;;4975433;28;20222;-67
2023/03/16 07:50:21;;;;;;;4.27;3.40;;;6.90;99.90;;;;;;4975920;28;20187;-67
2023/03/16 07:52:53;;;;;;;3.60;3.30;;;7.00;99.90;;;;;;4991806;28;20353;-66
2023/03/16 07:55:19;;;;;;;4.03;3.27;;;7.10;99.90;;;;;;4975562;28;20241;-67
2023/03/16 07:57:46;;;;;;;4.33;3.27;;;7.10;99.90;;;;;;4972718;28;20204;-69
2023/03/16 08:00:15;;;;;;;3.93;3.00;;;7.10;99.90;;;;;;4973181;28;20249;-66
2023/03/16 08:02:40;;;;;;;4.43;3.40;;;7.20;99.90;;;;;;4959834;28;20199;-66
2023/03/16 08:05:09;;;;;;;4.13;3.43;;;7.30;99.90;;;;;;4972052;28;20204;-66
2023/03/16 08:07:35;;;;;;;3.73;3.30;;;7.30;99.90;;;;;;4967662;28;20187;-64
2023/03/16 08:10:00;;;;;;;4.37;3.30;;;7.40;99.90;;;;;;4975573;28;20203;-66
2023/03/16 08:12:26;;;;;;;5.63;3.57;;;7.40;99.90;;;;;;4971269;28;20175;-68
2023/03/16 08:14:53;;;;;;;5.10;3.40;;;7.50;99.90;;;;;;4974823;28;20383;-65
2023/03/16 08:17:19;;;;;;;4.17;3.50;;;7.50;99.90;;;;;;4975591;28;20172;-67
2023/03/16 08:19:44;;;;;;;4.47;3.60;;;7.60;99.90;;;;;;4973091;28;20172;-68
2023/03/16 08:22:12;;;;;;;3.53;2.90;;;7.50;99.90;;;;;;4975321;28;20215;-67
2023/03/16 08:24:38;;;;;;;5.77;3.70;;;7.60;99.90;;;;;;4977265;28;20225;-67
2023/03/16 08:27:06;;;;;;;5.27;3.90;;;7.70;99.90;;;;;;4972153;28;20176;-67
2023/03/16 08:29:33;;;;;;;4.10;3.50;;;7.70;99.90;;;;;;4975615;28;20204;-67
2023/03/16 08:31:59;;;;;;;4.50;3.80;;;7.80;99.90;;;;;;4975357;28;20226;-67
2023/03/16 08:34:30;;;;;;;4.23;3.50;;;7.70;99.90;;;;;;4963622;28;20215;-67
2023/03/16 08:36:58;;;;;;;4.70;3.43;;;7.80;99.90;;;;;;4963767;28;20196;-65
2023/03/16 08:39:24;;;;;;;4.83;3.90;;;7.90;99.90;;;;;;4990402;28;20206;-67
2023/03/16 08:41:50;;;;;;;5.13;3.80;;;7.90;99.90;;;;;;4975659;28;20243;-67
2023/03/16 08:44:22;;;;;;;5.50;4.50;;;8.00;99.90;;;;;;4980353;28;20852;-67
2023/03/16 08:46:48;;;;;;;5.17;4.23;;;8.00;99.90;;;;;;4975336;28;20192;-67
2023/03/16 08:49:13;;;;;;;4.70;3.97;;;8.10;99.90;;;;;;4974708;28;20190;-67
2023/03/16 08:51:39;;;;;;;6.40;3.93;;;8.20;99.90;;;;;;4974524;28;20195;-66
2023/03/16 08:54:09;;;;;;;4.27;3.80;;;8.20;99.90;;;;;;4959393;28;20227;-67
2023/03/16 08:56:37;;;;;;;4.30;3.47;;;8.30;99.90;;;;;;4985172;28;20183;-67
2023/03/16 08:59:03;;;;;;;5.37;4.03;;;8.40;99.90;;;;;;4971811;28;20184;-65
2023/03/16 09:01:31;;;;;;;4.87;4.00;;;8.50;99.90;;;;;;4971338;28;20185;-67
2023/03/16 09:03:57;;;;;;;5.47;3.80;;;8.50;99.90;;;;;;4989970;28;20196;-67
2023/03/16 09:06:25;;;;;;;5.43;4.33;;;8.60;99.90;;;;;;4971433;28;20256;-65
2023/03/16 09:08:51;;;;;;;4.53;4.03;;;8.60;99.90;;;;;;4972010;28;20244;-67
2023/03/16 09:11:18;;;;;;;5.57;4.27;;;8.70;99.90;;;;;;4986572;28;20260;-67
2023/03/16 09:13:44;;;;;;;5.97;4.33;;;8.70;99.90;;;;;;4963205;28;20239;-66
2023/03/16 09:16:14;;;;;;;5.90;4.30;;;8.70;99.90;;;;;;4975131;28;20172;-66
2023/03/16 09:18:42;;;;;;;5.33;4.50;;;8.90;99.90;;;;;;4974441;28;20299;-66
2023/03/16 09:21:11;;;;;;;5.07;3.93;;;8.90;99.90;;;;;;4967590;28;20184;-63
2023/03/16 09:23:37;;;;;;;5.77;4.73;;;8.80;99.90;;;;;;4960618;28;20180;-66
2023/03/16 09:26:06;;;;;;;5.27;4.03;;;8.90;99.90;;;;;;4974850;28;20270;-67
2023/03/16 09:28:37;;;;;;;5.40;4.40;;;8.90;99.90;;;;;;4978107;28;20218;-66
2023/03/16 09:31:05;;;;;;;5.10;4.20;;;9.00;99.90;;;;;;4978062;28;20180;-65
2023/03/16 09:33:34;;;;;;;5.70;4.00;;;9.00;99.90;;;;;;4978315;28;20233;-67
2023/03/16 09:36:02;;;;;;;4.30;3.63;;;9.10;99.90;;;;;;4967941;28;20185;-67
2023/03/16 09:38:31;;;;;;;4.17;3.47;;;9.20;99.90;;;;;;4977126;28;20220;-65
2023/03/16 09:41:00;;;;;;;4.73;4.07;;;9.20;99.90;;;;;;4959301;29;20200;-66
2023/03/16 09:43:56;;;;;;;5.27;4.07;;;9.30;99.90;;;;;;4983244;28;20279;-62
2023/03/16 09:46:37;;;;;;;5.13;3.97;;;9.40;99.90;;;;;;4987472;28;20342;-66
2023/03/16 09:49:05;;;;;;;5.32;4.10;;;9.50;99.90;;;;;;4994378;28;20202;-65
2023/03/16 09:51:37;;;;;;;6.32;4.20;;;9.60;99.90;;;;;;4993993;28;20187;-67
2023/03/16 09:54:18;;;;;;;4.07;3.47;;;9.60;99.90;;;;;;4974945;28;20173;-60
2023/03/16 09:56:45;;;;;;;5.45;4.00;;;9.60;99.90;;;;;;4969114;28;20180;-66
2023/03/16 09:59:14;;;;;;;5.65;4.50;;;9.70;99.90;;;;;;4990588;28;20294;-66
2023/03/16 10:01:42;;;;;;;5.80;4.45;;;9.70;99.90;;;;;;4990695;28;20180;-67
2023/03/16 10:04:11;;;;;;;4.50;3.72;;;9.70;99.90;;;;;;4997599;28;20202;-66
2023/03/16 10:06:49;;;;;;;5.05;4.20;;;9.70;99.90;;;;;;4977459;28;20204;-67
2023/03/16 10:09:42;;;;;;;5.82;4.10;;;9.70;99.90;;;;;;4978085;28;20240;-67
2023/03/16 10:12:13;;;;;;;5.68;4.40;;;9.80;99.90;;;;;;4993590;28;20176;-67
2023/03/16 10:14:51;;;;;;;5.40;4.20;;;9.80;99.90;;;;;;4974368;28;20198;-67
2023/03/16 10:17:32;;;;;;;5.90;4.43;;;9.80;99.90;;;;;;4964984;28;20183;-67
2023/03/16 10:20:10;;;;;;;4.97;4.00;;;9.80;99.90;;;;;;4977489;28;20282;-67
2023/03/16 10:22:43;;;;;;;4.47;3.50;;;9.80;99.90;;;;;;4992295;28;20199;-67
2023/03/16 10:25:13;;;;;;;4.13;3.58;;;9.80;99.90;;;;;;4969328;28;20207;-67
2023/03/16 10:27:43;;;;;;;4.40;3.70;;;9.80;99.90;;;;;;4976798;28;20290;-67
2023/03/16 10:30:33;;;;;;;4.45;3.95;;;9.90;99.90;;;;;;4990559;28;20179;-66
2023/03/16 10:33:12;;;;;;;5.53;4.10;;;9.90;99.90;;;;;;4992363;28;20187;-65
2023/03/16 10:36:14;;;;;;;6.20;4.03;;;9.90;99.90;;;;;;4992680;28;20211;-61
2023/03/16 10:38:45;;;;;;;4.80;3.85;;;9.90;99.90;;;;;;4975902;28;20192;-67
2023/03/16 10:41:20;;;;;;;4.80;3.60;;;10.00;99.90;;;;;;4976512;28;20215;-66
2023/03/16 10:44:12;;;;;;;5.82;3.65;;;10.00;99.90;;;;;;4992607;28;20198;-65
2023/03/16 10:46:49;;;;;;;5.85;3.97;;;10.00;99.90;;;;;;4967337;28;20195;-67
2023/03/16 10:49:38;;;;;;;5.93;4.07;;;10.10;99.90;;;;;;4976183;28;20211;-67
2023/03/16 10:52:15;;;;;;;5.35;4.22;;;10.20;99.90;;;;;;4976306;28;20176;-65
2023/03/16 10:54:57;;;;;;;6.35;3.72;;;10.30;99.90;;;;;;4992443;28;20204;-66
2023/03/16 10:57:35;;;;;;;5.35;4.00;;;10.40;99.90;;;;;;4973119;28;20184;-67
2023/03/16 11:00:20;;;;;;;4.78;3.80;;;10.50;99.90;;;;;;4975918;28;20426;-61
2023/03/16 11:02:49;;;;;;;5.28;3.90;;;10.70;99.90;;;;;;4978861;28;20223;-67
2023/03/16 11:05:21;;;;;;;4.20;3.47;;;11.00;99.90;;;;;;4976177;28;20219;-67
2023/03/16 11:08:08;;;;;;;4.57;3.60;;;11.20;99.90;;;;;;4975580;28;20200;-68
2023/03/16 11:10:36;;;;;;;4.60;3.08;;;11.40;99.90;;;;;;4968234;28;20261;-68
2023/03/16 11:13:16;;;;;;;3.92;3.10;;;11.60;99.90;;;;;;4976829;28;20184;-63
2023/03/16 11:15:48;;;;;;;3.72;3.28;;;11.80;99.90;;;;;;4976499;28;20226;-64
2023/03/16 11:18:37;;;;;;;4.85;3.70;;;11.90;99.90;;;;;;4991169;28;20176;-68
2023/03/16 11:21:40;;;;;;;4.25;3.28;;;12.10;99.90;;;;;;4972513;28;20320;-67
2023/03/16 11:24:15;;;;;;;4.60;3.35;;;12.30;99.90;;;;;;4972815;28;20215;-67
2023/03/16 11:26:47;;;;;;;4.03;3.53;;;12.50;99.90;;;;;;4988068;28;20172;-68
2023/03/16 11:29:39;;;;;;;5.35;3.08;;;12.80;99.90;;;;;;4967803;28;20242;-67
2023/03/16 11:32:14;;;;;;;5.38;3.08;;;13.00;99.90;;;;;;4967723;28;20184;-66
2023/03/16 11:34:42;;;;;;;3.78;3.35;;;13.20;99.90;;;;;;4975587;28;20207;-67
2023/03/16 11:37:27;;;;;;;5.40;2.90;;;13.50;99.90;;;;;;4971982;28;20210;-65
2023/03/16 11:40:00;;;;;;;4.75;3.20;;;13.70;99.90;;;;;;4998088;28;20188;-63
2023/03/16 11:42:25;;;;;;;3.50;3.05;;;14.00;99.90;;;;;;4990808;28;20283;-68
2023/03/16 11:44:58;;;;;;;3.80;2.92;;;14.20;99.90;;;;;;4995515;28;20303;-66
2023/03/16 11:47:32;;;;;;;4.63;2.95;;;14.30;99.90;;;;;;4982356;28;20233;-67
2023/03/16 11:50:16;;;;;;;4.50;2.88;;;14.40;99.90;;;;;;4980575;28;20199;-64
2023/03/16 11:53:11;;;;;;;4.15;2.80;;;14.50;99.90;;;;;;4973293;28;20175;-66
2023/03/16 11:55:47;;;;;;;2.83;2.53;;;14.50;99.90;;;;;;4982060;28;20191;-68
2023/03/16 11:58:36;;;;;;;4.10;2.63;;;14.40;99.90;;;;;;4974039;28;20275;-66
2023/03/16 12:01:24;;;;;;;4.07;2.63;;;14.50;99.90;;;;;;4973481;28;20227;-68
2023/03/16 12:04:04;;;;;;;2.33;2.10;;;14.50;99.90;;;;;;4975079;28;20204;-68
2023/03/16 12:06:59;;;;;;;3.40;2.38;;;14.60;99.90;;;;;;4991164;28;20171;-66
2023/03/16 12:09:50;;;;;;;2.95;2.40;;;14.80;99.90;;;;;;4964961;28;20242;-68
2023/03/16 12:12:29;;;;;;;4.85;2.72;;;14.90;99.90;;;;;;4982652;28;20168;-66
2023/03/16 12:15:13;;;;;;;2.90;2.60;;;15.00;99.90;;;;;;4975250;28;20176;-68
2023/03/16 12:17:41;;;;;;;3.85;2.42;;;15.00;99.90;;;;;;4991541;28;20313;-68
2023/03/16 12:20:18;;;;;;;3.35;2.50;;;15.00;99.90;;;;;;4974457;28;20176;-63
2023/03/16 12:23:06;;;;;;;3.92;2.50;;;15.10;99.90;;;;;;4975107;28;20180;-68
2023/03/16 12:25:36;;;;;;;3.58;2.33;;;15.10;99.90;;;;;;4964288;28;20212;-67
2023/03/16 12:28:09;;;;;;;3.30;2.40;;;15.20;99.90;;;;;;4974089;28;20185;-67
2023/03/16 12:31:08;;;;;;;4.72;2.03;;;15.30;99.90;;;;;;4975106;28;20282;-67
2023/03/16 12:33:42;;;;;;;2.85;2.28;;;15.30;99.90;;;;;;4998094;28;20194;-67
2023/03/16 12:36:26;;;;;;;5.22;2.70;;;15.40;99.90;;;;;;5003523;28;20282;-67
2023/03/16 12:38:55;;;;;;;4.05;2.60;;;15.40;99.90;;;;;;4974943;28;20164;-68
2023/03/16 12:41:48;;;;;;;5.95;2.70;;;15.40;99.90;;;;;;4974581;28;20180;-67
2023/03/16 12:44:17;;;;;;;3.88;2.42;;;15.40;99.90;;;;;;4987953;28;20243;-67
2023/03/16 12:47:16;;;;;;;2.55;1.98;;;15.30;99.90;;;;;;4972367;28;20606;-67
2023/03/16 12:49:42;;;;;;;3.53;2.13;;;15.20;99.90;;;;;;4990956;28;20327;-67
2023/03/16 12:52:11;;;;;;;2.58;1.92;;;15.10;99.90;;;;;;4988060;28;20258;-67
2023/03/16 12:55:11;;;;;;;2.35;1.67;;;15.10;99.90;;;;;;4960319;28;20192;-68
2023/03/16 12:57:41;;;;;;;2.42;1.77;;;15.00;99.90;;;;;;4990872;28;20187;-67
2023/03/16 13:00:09;;;;;;;2.60;1.98;;;15.00;99.90;;;;;;4975840;28;20199;-68
2023/03/16 13:02:37;;;;;;;2.50;1.83;;;15.10;99.90;;;;;;4978743;28;20180;-68
2023/03/16 13:05:37;;;;;;;2.00;1.60;;;15.10;99.90;;;;;;4976570;28;20212;-68
2023/03/16 13:08:23;;;;;;;3.83;2.03;;;15.00;99.90;;;;;;4997752;28;20187;-67
2023/03/16 13:11:21;;;;;;;2.88;1.90;;;15.00;99.90;;;;;;4978683;28;20180;-67
2023/03/16 13:14:11;;;;;;;1.95;1.50;;;15.00;99.90;;;;;;4951644;29;20189;-67